sensor_id;sensor_type;location;lat;lon;timestamp;P1;durP1;ratioP1;P2;durP2;ratioP2
35648;SDS011;21768;48.562;13.414;2023-07-29T00:00:21;3.95;;;2.10;;
35648;SDS011;21768;48.562;13.414;2023-07-29T00:02:47;3.55;;;2.20;;
35648;SDS011;21768;48.562;13.414;2023-07-29T00:05:12;3.15;;;2.20;;
35648;SDS011;21768;48.562;13.414;2023-07-29T00:07:37;3.88;;;2.25;;
35648;SDS011;21768;48.562;13.414;2023-07-29T00:10:03;3.20;;;2.00;;
35648;SDS011;21768;48.562;13.414;2023-07-29T00:12:29;2.83;;;2.20;;
35648;SDS011;21768;48.562;13.414;2023-07-29T00:14:54;3.13;;;2.05;;
35648;SDS011;21768;48.562;13.414;2023-07-29T00:17:20;4.13;;;2.30;;
35648;SDS011;21768;48.562;13.414;2023-07-29T00:19:46;6.47;;;2.10;;
35648;SDS011;21768;48.562;13.414;2023-07-29T00:22:11;3.90;;;2.05;;
35648;SDS011;21768;48.562;13.414;2023-07-29T00:24:37;2.28;;;1.80;;
35648;SDS011;21768;48.562;13.414;2023-07-29T00:27:02;4.65;;;1.90;;
35648;SDS011;21768;48.562;13.414;2023-07-29T00:29:28;10.05;;;1.80;;
35648;SDS011;21768;48.562;13.414;2023-07-29T00:31:53;2.58;;;1.60;;
35648;SDS011;21768;48.562;13.414;2023-07-29T00:34:18;3.80;;;1.88;;
35648;SDS011;21768;48.562;13.414;2023-07-29T00:36:45;3.97;;;1.50;;
35648;SDS011;21768;48.562;13.414;2023-07-29T00:39:11;2.90;;;1.88;;
35648;SDS011;21768;48.562;13.414;2023-07-29T00:41:36;2.42;;;1.45;;
35648;SDS011;21768;48.562;13.414;2023-07-29T00:44:02;2.25;;;1.70;;
35648;SDS011;21768;48.562;13.414;2023-07-29T00:46:27;6.05;;;1.92;;
35648;SDS011;21768;48.562;13.414;2023-07-29T00:48:54;3.17;;;2.00;;
35648;SDS011;21768;48.562;13.414;2023-07-29T00:51:20;4.60;;;1.83;;
35648;SDS011;21768;48.562;13.414;2023-07-29T00:53:45;2.30;;;1.52;;
35648;SDS011;21768;48.562;13.414;2023-07-29T00:56:11;2.42;;;1.80;;
35648;SDS011;21768;48.562;13.414;2023-07-29T00:58:37;4.60;;;1.40;;
35648;SDS011;21768;48.562;13.414;2023-07-29T01:01:02;5.40;;;1.80;;
35648;SDS011;21768;48.562;13.414;2023-07-29T01:03:28;3.20;;;1.80;;
35648;SDS011;21768;48.562;13.414;2023-07-29T01:06:09;3.67;;;1.50;;
35648;SDS011;21768;48.562;13.414;2023-07-29T01:08:46;2.80;;;1.50;;
35648;SDS011;21768;48.562;13.414;2023-07-29T01:11:33;4.03;;;1.90;;
35648;SDS011;21768;48.562;13.414;2023-07-29T01:14:03;2.42;;;1.48;;
35648;SDS011;21768;48.562;13.414;2023-07-29T01:16:42;2.80;;;1.60;;
35648;SDS011;21768;48.562;13.414;2023-07-29T01:19:14;4.97;;;1.60;;
35648;SDS011;21768;48.562;13.414;2023-07-29T01:22:04;3.47;;;1.50;;
35648;SDS011;21768;48.562;13.414;2023-07-29T01:24:31;4.20;;;1.70;;
35648;SDS011;21768;48.562;13.414;2023-07-29T01:26:57;3.05;;;1.80;;
35648;SDS011;21768;48.562;13.414;2023-07-29T01:29:22;4.93;;;1.80;;
35648;SDS011;21768;48.562;13.414;2023-07-29T01:31:47;6.55;;;2.22;;
35648;SDS011;21768;48.562;13.414;2023-07-29T01:34:29;5.00;;;1.88;;
35648;SDS011;21768;48.562;13.414;2023-07-29T01:37:00;3.75;;;1.88;;
35648;SDS011;21768;48.562;13.414;2023-07-29T01:39:30;2.67;;;1.85;;
35648;SDS011;21768;48.562;13.414;2023-07-29T01:41:58;4.28;;;2.00;;
35648;SDS011;21768;48.562;13.414;2023-07-29T01:44:23;6.97;;;2.00;;
35648;SDS011;21768;48.562;13.414;2023-07-29T01:46:50;7.10;;;1.98;;
35648;SDS011;21768;48.562;13.414;2023-07-29T01:49:15;4.22;;;2.10;;
35648;SDS011;21768;48.562;13.414;2023-07-29T01:51:41;10.57;;;2.10;;
35648;SDS011;21768;48.562;13.414;2023-07-29T01:54:06;5.03;;;2.40;;
35648;SDS011;21768;48.562;13.414;2023-07-29T01:56:31;3.10;;;1.77;;
35648;SDS011;21768;48.562;13.414;2023-07-29T01:58:57;4.13;;;2.33;;
35648;SDS011;21768;48.562;13.414;2023-07-29T02:01:22;4.53;;;2.20;;
35648;SDS011;21768;48.562;13.414;2023-07-29T02:03:48;4.50;;;2.50;;
35648;SDS011;21768;48.562;13.414;2023-07-29T02:06:19;6.53;;;2.20;;
35648;SDS011;21768;48.562;13.414;2023-07-29T02:08:45;4.57;;;2.85;;
35648;SDS011;21768;48.562;13.414;2023-07-29T02:11:10;4.60;;;2.67;;
35648;SDS011;21768;48.562;13.414;2023-07-29T02:13:35;4.63;;;2.38;;
35648;SDS011;21768;48.562;13.414;2023-07-29T02:16:01;4.45;;;2.35;;
35648;SDS011;21768;48.562;13.414;2023-07-29T02:18:26;4.55;;;2.22;;
35648;SDS011;21768;48.562;13.414;2023-07-29T02:20:52;6.78;;;2.38;;
35648;SDS011;21768;48.562;13.414;2023-07-29T02:23:17;6.30;;;2.70;;
35648;SDS011;21768;48.562;13.414;2023-07-29T02:25:42;5.32;;;2.63;;
35648;SDS011;21768;48.562;13.414;2023-07-29T02:28:08;4.65;;;2.67;;
35648;SDS011;21768;48.562;13.414;2023-07-29T02:30:33;5.65;;;3.10;;
35648;SDS011;21768;48.562;13.414;2023-07-29T02:32:59;4.47;;;2.72;;
35648;SDS011;21768;48.562;13.414;2023-07-29T02:35:26;4.53;;;2.75;;
35648;SDS011;21768;48.562;13.414;2023-07-29T02:37:52;7.28;;;2.88;;
35648;SDS011;21768;48.562;13.414;2023-07-29T02:40:17;5.22;;;3.08;;
35648;SDS011;21768;48.562;13.414;2023-07-29T02:42:42;5.38;;;3.10;;
35648;SDS011;21768;48.562;13.414;2023-07-29T02:45:08;6.88;;;3.10;;
35648;SDS011;21768;48.562;13.414;2023-07-29T02:47:36;7.47;;;3.55;;
35648;SDS011;21768;48.562;13.414;2023-07-29T02:50:02;7.40;;;3.05;;
35648;SDS011;21768;48.562;13.414;2023-07-29T02:52:27;8.88;;;2.80;;
35648;SDS011;21768;48.562;13.414;2023-07-29T02:54:53;5.25;;;2.80;;
35648;SDS011;21768;48.562;13.414;2023-07-29T02:57:18;4.35;;;2.42;;
35648;SDS011;21768;48.562;13.414;2023-07-29T02:59:44;6.43;;;3.00;;
35648;SDS011;21768;48.562;13.414;2023-07-29T03:02:11;5.47;;;2.50;;
35648;SDS011;21768;48.562;13.414;2023-07-29T03:04:36;4.03;;;2.63;;
35648;SDS011;21768;48.562;13.414;2023-07-29T03:07:02;4.60;;;2.30;;
35648;SDS011;21768;48.562;13.414;2023-07-29T03:09:28;5.97;;;2.78;;
35648;SDS011;21768;48.562;13.414;2023-07-29T03:11:53;5.53;;;2.80;;
35648;SDS011;21768;48.562;13.414;2023-07-29T03:14:20;5.20;;;2.70;;
35648;SDS011;21768;48.562;13.414;2023-07-29T03:16:45;4.68;;;2.60;;
35648;SDS011;21768;48.562;13.414;2023-07-29T03:19:12;4.53;;;2.40;;
35648;SDS011;21768;48.562;13.414;2023-07-29T03:21:37;4.35;;;2.58;;
35648;SDS011;21768;48.562;13.414;2023-07-29T03:24:03;5.30;;;2.75;;
35648;SDS011;21768;48.562;13.414;2023-07-29T03:26:28;6.88;;;2.78;;
35648;SDS011;21768;48.562;13.414;2023-07-29T03:28:53;4.18;;;2.28;;
35648;SDS011;21768;48.562;13.414;2023-07-29T03:31:19;4.22;;;2.25;;
35648;SDS011;21768;48.562;13.414;2023-07-29T03:33:44;5.68;;;2.92;;
35648;SDS011;21768;48.562;13.414;2023-07-29T03:36:09;4.28;;;2.13;;
35648;SDS011;21768;48.562;13.414;2023-07-29T03:38:35;3.95;;;2.60;;
35648;SDS011;21768;48.562;13.414;2023-07-29T03:41:04;4.88;;;2.20;;
35648;SDS011;21768;48.562;13.414;2023-07-29T03:43:30;5.53;;;2.60;;
35648;SDS011;21768;48.562;13.414;2023-07-29T03:45:56;4.93;;;2.80;;
35648;SDS011;21768;48.562;13.414;2023-07-29T03:48:21;3.75;;;2.53;;
35648;SDS011;21768;48.562;13.414;2023-07-29T03:50:46;7.30;;;2.60;;
35648;SDS011;21768;48.562;13.414;2023-07-29T03:53:12;5.22;;;2.28;;
35648;SDS011;21768;48.562;13.414;2023-07-29T03:55:37;8.30;;;2.88;;
35648;SDS011;21768;48.562;13.414;2023-07-29T03:58:02;4.82;;;2.70;;
35648;SDS011;21768;48.562;13.414;2023-07-29T04:00:28;8.18;;;3.08;;
35648;SDS011;21768;48.562;13.414;2023-07-29T04:02:53;5.03;;;2.53;;
35648;SDS011;21768;48.562;13.414;2023-07-29T04:05:19;5.97;;;3.30;;
35648;SDS011;21768;48.562;13.414;2023-07-29T04:07:45;5.55;;;2.65;;
35648;SDS011;21768;48.562;13.414;2023-07-29T04:10:10;7.78;;;2.63;;
35648;SDS011;21768;48.562;13.414;2023-07-29T04:12:36;6.43;;;2.88;;
35648;SDS011;21768;48.562;13.414;2023-07-29T04:15:01;3.72;;;2.38;;
35648;SDS011;21768;48.562;13.414;2023-07-29T04:17:27;6.22;;;2.63;;
35648;SDS011;21768;48.562;13.414;2023-07-29T04:19:52;6.57;;;2.90;;
35648;SDS011;21768;48.562;13.414;2023-07-29T04:22:17;5.65;;;2.58;;
35648;SDS011;21768;48.562;13.414;2023-07-29T04:24:43;4.80;;;2.65;;
35648;SDS011;21768;48.562;13.414;2023-07-29T04:27:08;5.38;;;2.53;;
35648;SDS011;21768;48.562;13.414;2023-07-29T04:29:33;7.55;;;2.60;;
35648;SDS011;21768;48.562;13.414;2023-07-29T04:32:00;7.28;;;2.38;;
35648;SDS011;21768;48.562;13.414;2023-07-29T04:34:26;5.10;;;2.22;;
35648;SDS011;21768;48.562;13.414;2023-07-29T04:36:52;4.90;;;2.47;;
35648;SDS011;21768;48.562;13.414;2023-07-29T04:39:17;5.03;;;2.60;;
35648;SDS011;21768;48.562;13.414;2023-07-29T04:41:43;3.20;;;2.25;;
35648;SDS011;21768;48.562;13.414;2023-07-29T04:44:08;4.90;;;2.45;;
35648;SDS011;21768;48.562;13.414;2023-07-29T04:46:35;8.93;;;2.97;;
35648;SDS011;21768;48.562;13.414;2023-07-29T04:49:01;4.63;;;2.55;;
35648;SDS011;21768;48.562;13.414;2023-07-29T04:51:27;4.40;;;2.80;;
35648;SDS011;21768;48.562;13.414;2023-07-29T04:53:53;4.10;;;2.65;;
35648;SDS011;21768;48.562;13.414;2023-07-29T04:56:18;4.63;;;2.67;;
35648;SDS011;21768;48.562;13.414;2023-07-29T04:58:43;6.82;;;2.60;;
35648;SDS011;21768;48.562;13.414;2023-07-29T05:01:09;5.68;;;2.50;;
35648;SDS011;21768;48.562;13.414;2023-07-29T05:03:34;5.60;;;2.25;;
35648;SDS011;21768;48.562;13.414;2023-07-29T05:06:00;5.15;;;2.08;;
35648;SDS011;21768;48.562;13.414;2023-07-29T05:08:26;4.75;;;2.75;;
35648;SDS011;21768;48.562;13.414;2023-07-29T05:10:52;3.75;;;2.20;;
35648;SDS011;21768;48.562;13.414;2023-07-29T05:13:18;9.38;;;2.35;;
35648;SDS011;21768;48.562;13.414;2023-07-29T05:15:44;7.18;;;2.90;;
35648;SDS011;21768;48.562;13.414;2023-07-29T05:18:09;4.93;;;2.85;;
35648;SDS011;21768;48.562;13.414;2023-07-29T05:20:35;4.07;;;2.55;;
35648;SDS011;21768;48.562;13.414;2023-07-29T05:23:00;4.93;;;2.75;;
35648;SDS011;21768;48.562;13.414;2023-07-29T05:25:26;4.75;;;2.33;;
35648;SDS011;21768;48.562;13.414;2023-07-29T05:27:51;5.03;;;3.13;;
35648;SDS011;21768;48.562;13.414;2023-07-29T05:30:17;5.47;;;2.45;;
35648;SDS011;21768;48.562;13.414;2023-07-29T05:32:42;4.38;;;2.33;;
35648;SDS011;21768;48.562;13.414;2023-07-29T05:35:08;3.80;;;2.47;;
35648;SDS011;21768;48.562;13.414;2023-07-29T05:37:33;7.70;;;2.90;;
35648;SDS011;21768;48.562;13.414;2023-07-29T05:39:59;6.60;;;2.75;;
35648;SDS011;21768;48.562;13.414;2023-07-29T05:42:24;3.90;;;2.90;;
35648;SDS011;21768;48.562;13.414;2023-07-29T05:44:50;3.33;;;2.50;;
35648;SDS011;21768;48.562;13.414;2023-07-29T05:47:15;5.80;;;2.40;;
35648;SDS011;21768;48.562;13.414;2023-07-29T05:49:41;6.13;;;2.33;;
35648;SDS011;21768;48.562;13.414;2023-07-29T05:52:06;5.65;;;2.70;;
35648;SDS011;21768;48.562;13.414;2023-07-29T05:54:32;8.52;;;2.38;;
35648;SDS011;21768;48.562;13.414;2023-07-29T05:56:57;6.63;;;2.92;;
35648;SDS011;21768;48.562;13.414;2023-07-29T05:59:23;5.25;;;2.55;;
35648;SDS011;21768;48.562;13.414;2023-07-29T06:01:48;4.57;;;2.35;;
35648;SDS011;21768;48.562;13.414;2023-07-29T06:04:13;8.55;;;2.60;;
35648;SDS011;21768;48.562;13.414;2023-07-29T06:09:18;4.32;;;2.65;;
35648;SDS011;21768;48.562;13.414;2023-07-29T06:14:19;7.65;;;2.60;;
35648;SDS011;21768;48.562;13.414;2023-07-29T06:16:44;5.57;;;2.58;;
35648;SDS011;21768;48.562;13.414;2023-07-29T06:19:10;4.80;;;2.30;;
35648;SDS011;21768;48.562;13.414;2023-07-29T06:21:35;5.38;;;2.67;;
35648;SDS011;21768;48.562;13.414;2023-07-29T06:24:01;6.82;;;2.97;;
35648;SDS011;21768;48.562;13.414;2023-07-29T06:26:27;5.18;;;2.65;;
35648;SDS011;21768;48.562;13.414;2023-07-29T06:28:52;6.00;;;3.72;;
35648;SDS011;21768;48.562;13.414;2023-07-29T06:31:18;7.05;;;2.53;;
35648;SDS011;21768;48.562;13.414;2023-07-29T06:33:43;4.43;;;2.70;;
35648;SDS011;21768;48.562;13.414;2023-07-29T06:36:09;8.63;;;3.13;;
35648;SDS011;21768;48.562;13.414;2023-07-29T06:38:34;5.18;;;3.00;;
35648;SDS011;21768;48.562;13.414;2023-07-29T06:40:59;3.67;;;2.67;;
35648;SDS011;21768;48.562;13.414;2023-07-29T06:43:25;4.32;;;2.30;;
35648;SDS011;21768;48.562;13.414;2023-07-29T06:45:50;3.47;;;2.15;;
35648;SDS011;21768;48.562;13.414;2023-07-29T06:48:16;5.13;;;2.40;;
35648;SDS011;21768;48.562;13.414;2023-07-29T06:50:42;5.50;;;2.15;;
35648;SDS011;21768;48.562;13.414;2023-07-29T06:53:08;6.63;;;2.50;;
35648;SDS011;21768;48.562;13.414;2023-07-29T06:55:34;4.97;;;2.38;;
35648;SDS011;21768;48.562;13.414;2023-07-29T06:57:59;3.17;;;2.20;;
35648;SDS011;21768;48.562;13.414;2023-07-29T07:00:25;4.00;;;2.05;;
35648;SDS011;21768;48.562;13.414;2023-07-29T07:02:50;4.20;;;2.33;;
35648;SDS011;21768;48.562;13.414;2023-07-29T07:05:16;2.78;;;1.77;;
35648;SDS011;21768;48.562;13.414;2023-07-29T07:07:41;2.38;;;1.80;;
35648;SDS011;21768;48.562;13.414;2023-07-29T07:10:07;4.45;;;2.20;;
35648;SDS011;21768;48.562;13.414;2023-07-29T07:12:32;3.63;;;2.05;;
35648;SDS011;21768;48.562;13.414;2023-07-29T07:14:59;3.33;;;2.13;;
35648;SDS011;21768;48.562;13.414;2023-07-29T07:17:25;6.45;;;2.10;;
35648;SDS011;21768;48.562;13.414;2023-07-29T07:19:50;2.75;;;1.70;;
35648;SDS011;21768;48.562;13.414;2023-07-29T07:22:16;2.78;;;1.88;;
35648;SDS011;21768;48.562;13.414;2023-07-29T07:24:41;3.80;;;1.90;;
35648;SDS011;21768;48.562;13.414;2023-07-29T07:27:07;2.50;;;1.70;;
35648;SDS011;21768;48.562;13.414;2023-07-29T07:29:32;2.65;;;1.88;;
35648;SDS011;21768;48.562;13.414;2023-07-29T07:31:58;4.97;;;1.90;;
35648;SDS011;21768;48.562;13.414;2023-07-29T07:34:23;2.95;;;1.65;;
35648;SDS011;21768;48.562;13.414;2023-07-29T07:36:49;3.00;;;1.52;;
35648;SDS011;21768;48.562;13.414;2023-07-29T07:39:14;2.00;;;1.33;;
35648;SDS011;21768;48.562;13.414;2023-07-29T07:41:41;3.60;;;1.60;;
35648;SDS011;21768;48.562;13.414;2023-07-29T07:44:07;2.65;;;1.40;;
35648;SDS011;21768;48.562;13.414;2023-07-29T07:46:32;3.00;;;1.75;;
35648;SDS011;21768;48.562;13.414;2023-07-29T07:48:58;2.67;;;1.75;;
35648;SDS011;21768;48.562;13.414;2023-07-29T07:51:23;6.43;;;1.60;;
35648;SDS011;21768;48.562;13.414;2023-07-29T07:53:49;2.95;;;1.65;;
35648;SDS011;21768;48.562;13.414;2023-07-29T07:56:14;4.18;;;1.80;;
35648;SDS011;21768;48.562;13.414;2023-07-29T07:58:40;2.40;;;1.60;;
35648;SDS011;21768;48.562;13.414;2023-07-29T08:01:06;5.70;;;1.70;;
35648;SDS011;21768;48.562;13.414;2023-07-29T08:03:32;2.60;;;1.90;;
35648;SDS011;21768;48.562;13.414;2023-07-29T08:05:58;2.90;;;1.70;;
35648;SDS011;21768;48.562;13.414;2023-07-29T08:08:25;2.03;;;1.40;;
35648;SDS011;21768;48.562;13.414;2023-07-29T08:10:54;3.53;;;1.58;;
35648;SDS011;21768;48.562;13.414;2023-07-29T08:13:22;2.42;;;1.60;;
35648;SDS011;21768;48.562;13.414;2023-07-29T08:15:48;3.05;;;1.58;;
35648;SDS011;21768;48.562;13.414;2023-07-29T08:18:14;3.40;;;1.40;;
35648;SDS011;21768;48.562;13.414;2023-07-29T08:20:40;7.88;;;1.83;;
35648;SDS011;21768;48.562;13.414;2023-07-29T08:23:06;2.45;;;1.55;;
35648;SDS011;21768;48.562;13.414;2023-07-29T08:25:31;3.13;;;1.50;;
35648;SDS011;21768;48.562;13.414;2023-07-29T08:27:57;2.45;;;1.67;;
35648;SDS011;21768;48.562;13.414;2023-07-29T08:30:22;2.95;;;1.70;;
35648;SDS011;21768;48.562;13.414;2023-07-29T08:32:47;2.30;;;1.50;;
35648;SDS011;21768;48.562;13.414;2023-07-29T08:35:13;2.53;;;1.90;;
35648;SDS011;21768;48.562;13.414;2023-07-29T08:37:38;2.70;;;1.75;;
35648;SDS011;21768;48.562;13.414;2023-07-29T08:40:04;4.30;;;1.60;;
35648;SDS011;21768;48.562;13.414;2023-07-29T08:42:31;2.78;;;1.77;;
35648;SDS011;21768;48.562;13.414;2023-07-29T08:44:59;8.55;;;1.70;;
35648;SDS011;21768;48.562;13.414;2023-07-29T08:47:31;5.88;;;1.70;;
35648;SDS011;21768;48.562;13.414;2023-07-29T08:49:56;1.88;;;1.30;;
35648;SDS011;21768;48.562;13.414;2023-07-29T08:52:24;3.67;;;1.40;;
35648;SDS011;21768;48.562;13.414;2023-07-29T08:54:51;4.35;;;1.67;;
35648;SDS011;21768;48.562;13.414;2023-07-29T08:57:17;5.05;;;1.80;;
35648;SDS011;21768;48.562;13.414;2023-07-29T08:59:45;3.78;;;1.70;;
35648;SDS011;21768;48.562;13.414;2023-07-29T09:02:11;4.85;;;1.95;;
35648;SDS011;21768;48.562;13.414;2023-07-29T09:04:37;8.57;;;2.80;;
35648;SDS011;21768;48.562;13.414;2023-07-29T09:07:02;8.63;;;2.90;;
35648;SDS011;21768;48.562;13.414;2023-07-29T09:09:30;6.85;;;2.70;;
35648;SDS011;21768;48.562;13.414;2023-07-29T09:11:55;9.15;;;3.20;;
35648;SDS011;21768;48.562;13.414;2023-07-29T09:14:21;10.35;;;2.70;;
35648;SDS011;21768;48.562;13.414;2023-07-29T09:16:48;7.88;;;2.80;;
35648;SDS011;21768;48.562;13.414;2023-07-29T09:19:13;8.57;;;2.47;;
35648;SDS011;21768;48.562;13.414;2023-07-29T09:21:39;8.30;;;2.75;;
35648;SDS011;21768;48.562;13.414;2023-07-29T09:24:05;9.75;;;2.90;;
35648;SDS011;21768;48.562;13.414;2023-07-29T09:26:32;10.10;;;3.40;;
35648;SDS011;21768;48.562;13.414;2023-07-29T09:28:58;6.80;;;2.70;;
35648;SDS011;21768;48.562;13.414;2023-07-29T09:31:25;11.63;;;2.85;;
35648;SDS011;21768;48.562;13.414;2023-07-29T09:33:56;7.63;;;2.80;;
35648;SDS011;21768;48.562;13.414;2023-07-29T09:36:25;6.60;;;2.70;;
35648;SDS011;21768;48.562;13.414;2023-07-29T09:38:55;7.68;;;3.20;;
35648;SDS011;21768;48.562;13.414;2023-07-29T09:41:22;5.07;;;2.55;;
35648;SDS011;21768;48.562;13.414;2023-07-29T09:43:51;9.45;;;2.60;;
35648;SDS011;21768;48.562;13.414;2023-07-29T09:46:22;10.95;;;2.47;;
35648;SDS011;21768;48.562;13.414;2023-07-29T09:48:49;5.30;;;1.80;;
35648;SDS011;21768;48.562;13.414;2023-07-29T09:51:15;4.13;;;1.90;;
35648;SDS011;21768;48.562;13.414;2023-07-29T09:53:42;4.63;;;1.70;;
35648;SDS011;21768;48.562;13.414;2023-07-29T09:56:12;3.90;;;1.70;;
35648;SDS011;21768;48.562;13.414;2023-07-29T09:58:38;3.13;;;1.58;;
35648;SDS011;21768;48.562;13.414;2023-07-29T10:01:07;3.30;;;1.58;;
35648;SDS011;21768;48.562;13.414;2023-07-29T10:03:33;4.18;;;1.83;;
35648;SDS011;21768;48.562;13.414;2023-07-29T10:06:04;3.05;;;1.80;;
35648;SDS011;21768;48.562;13.414;2023-07-29T10:08:30;6.55;;;2.67;;
35648;SDS011;21768;48.562;13.414;2023-07-29T10:11:01;9.27;;;1.98;;
35648;SDS011;21768;48.562;13.414;2023-07-29T10:13:27;2.35;;;1.80;;
35648;SDS011;21768;48.562;13.414;2023-07-29T10:15:53;5.22;;;1.83;;
35648;SDS011;21768;48.562;13.414;2023-07-29T10:18:19;4.75;;;1.60;;
35648;SDS011;21768;48.562;13.414;2023-07-29T10:20:45;3.78;;;1.65;;
35648;SDS011;21768;48.562;13.414;2023-07-29T10:23:13;3.72;;;1.77;;
35648;SDS011;21768;48.562;13.414;2023-07-29T10:25:43;2.85;;;1.80;;
35648;SDS011;21768;48.562;13.414;2023-07-29T10:28:12;6.80;;;1.77;;
35648;SDS011;21768;48.562;13.414;2023-07-29T10:30:40;3.53;;;1.65;;
35648;SDS011;21768;48.562;13.414;2023-07-29T10:33:06;2.70;;;1.80;;
35648;SDS011;21768;48.562;13.414;2023-07-29T10:35:32;5.13;;;1.80;;
35648;SDS011;21768;48.562;13.414;2023-07-29T10:37:59;2.70;;;1.42;;
35648;SDS011;21768;48.562;13.414;2023-07-29T10:40:27;3.47;;;2.00;;
35648;SDS011;21768;48.562;13.414;2023-07-29T10:43:10;2.92;;;1.65;;
35648;SDS011;21768;48.562;13.414;2023-07-29T10:45:39;5.00;;;1.90;;
35648;SDS011;21768;48.562;13.414;2023-07-29T10:50:35;2.17;;;1.58;;
35648;SDS011;21768;48.562;13.414;2023-07-29T10:53:01;5.90;;;1.85;;
35648;SDS011;21768;48.562;13.414;2023-07-29T10:55:31;1.90;;;1.60;;
35648;SDS011;21768;48.562;13.414;2023-07-29T10:58:05;2.65;;;1.88;;
35648;SDS011;21768;48.562;13.414;2023-07-29T11:00:37;3.88;;;2.17;;
35648;SDS011;21768;48.562;13.414;2023-07-29T11:03:05;3.75;;;2.33;;
35648;SDS011;21768;48.562;13.414;2023-07-29T11:05:47;2.15;;;1.70;;
35648;SDS011;21768;48.562;13.414;2023-07-29T11:10:44;2.45;;;1.70;;
35648;SDS011;21768;48.562;13.414;2023-07-29T11:13:23;2.58;;;1.50;;
35648;SDS011;21768;48.562;13.414;2023-07-29T11:15:48;2.88;;;1.80;;
35648;SDS011;21768;48.562;13.414;2023-07-29T11:18:15;3.28;;;1.90;;
35648;SDS011;21768;48.562;13.414;2023-07-29T11:20:41;2.92;;;2.17;;
35648;SDS011;21768;48.562;13.414;2023-07-29T11:23:07;3.17;;;1.80;;
35648;SDS011;21768;48.562;13.414;2023-07-29T11:25:32;4.38;;;1.55;;
35648;SDS011;21768;48.562;13.414;2023-07-29T11:28:01;3.45;;;1.80;;
35648;SDS011;21768;48.562;13.414;2023-07-29T11:30:26;5.30;;;1.85;;
35648;SDS011;21768;48.562;13.414;2023-07-29T11:32:53;2.33;;;2.00;;
35648;SDS011;21768;48.562;13.414;2023-07-29T11:35:20;4.00;;;2.00;;
35648;SDS011;21768;48.562;13.414;2023-07-29T11:37:47;3.08;;;1.70;;
35648;SDS011;21768;48.562;13.414;2023-07-29T11:40:14;4.25;;;1.90;;
35648;SDS011;21768;48.562;13.414;2023-07-29T11:42:40;3.97;;;1.50;;
35648;SDS011;21768;48.562;13.414;2023-07-29T11:45:06;1.88;;;1.42;;
35648;SDS011;21768;48.562;13.414;2023-07-29T11:47:32;1.52;;;1.38;;
35648;SDS011;21768;48.562;13.414;2023-07-29T11:50:02;2.20;;;1.65;;
35648;SDS011;21768;48.562;13.414;2023-07-29T11:52:29;2.35;;;1.73;;
35648;SDS011;21768;48.562;13.414;2023-07-29T11:55:00;2.00;;;1.60;;
35648;SDS011;21768;48.562;13.414;2023-07-29T11:57:27;3.47;;;1.65;;
35648;SDS011;21768;48.562;13.414;2023-07-29T11:59:53;2.70;;;1.60;;
35648;SDS011;21768;48.562;13.414;2023-07-29T12:02:19;1.80;;;1.50;;
35648;SDS011;21768;48.562;13.414;2023-07-29T12:04:46;2.47;;;1.60;;
35648;SDS011;21768;48.562;13.414;2023-07-29T12:07:13;4.18;;;1.70;;
35648;SDS011;21768;48.562;13.414;2023-07-29T12:09:40;3.38;;;1.73;;
35648;SDS011;21768;48.562;13.414;2023-07-29T12:12:07;4.18;;;1.67;;
35648;SDS011;21768;48.562;13.414;2023-07-29T12:14:33;2.08;;;1.58;;
35648;SDS011;21768;48.562;13.414;2023-07-29T12:16:59;4.22;;;1.98;;
35648;SDS011;21768;48.562;13.414;2023-07-29T12:19:36;2.20;;;1.48;;
35648;SDS011;21768;48.562;13.414;2023-07-29T12:22:02;2.05;;;1.40;;
35648;SDS011;21768;48.562;13.414;2023-07-29T12:24:29;3.63;;;1.70;;
35648;SDS011;21768;48.562;13.414;2023-07-29T12:26:56;2.90;;;1.70;;
35648;SDS011;21768;48.562;13.414;2023-07-29T12:29:21;1.92;;;1.70;;
35648;SDS011;21768;48.562;13.414;2023-07-29T12:31:47;3.83;;;2.10;;
35648;SDS011;21768;48.562;13.414;2023-07-29T12:34:19;2.75;;;1.60;;
35648;SDS011;21768;48.562;13.414;2023-07-29T12:36:49;1.98;;;1.52;;
35648;SDS011;21768;48.562;13.414;2023-07-29T12:39:16;2.40;;;1.77;;
35648;SDS011;21768;48.562;13.414;2023-07-29T12:41:42;8.23;;;1.90;;
35648;SDS011;21768;48.562;13.414;2023-07-29T12:44:08;4.25;;;2.15;;
35648;SDS011;21768;48.562;13.414;2023-07-29T12:46:33;6.53;;;4.40;;
35648;SDS011;21768;48.562;13.414;2023-07-29T12:48:58;4.25;;;2.50;;
35648;SDS011;21768;48.562;13.414;2023-07-29T12:51:24;6.00;;;2.67;;
35648;SDS011;21768;48.562;13.414;2023-07-29T12:53:49;7.05;;;2.75;;
35648;SDS011;21768;48.562;13.414;2023-07-29T12:56:14;4.50;;;2.40;;
35648;SDS011;21768;48.562;13.414;2023-07-29T12:58:40;5.70;;;2.72;;
35648;SDS011;21768;48.562;13.414;2023-07-29T13:01:05;8.55;;;2.35;;
35648;SDS011;21768;48.562;13.414;2023-07-29T13:03:30;6.47;;;2.13;;
35648;SDS011;21768;48.562;13.414;2023-07-29T13:05:56;5.25;;;2.53;;
35648;SDS011;21768;48.562;13.414;2023-07-29T13:08:21;7.28;;;2.30;;
35648;SDS011;21768;48.562;13.414;2023-07-29T13:10:48;4.55;;;2.47;;
35648;SDS011;21768;48.562;13.414;2023-07-29T13:13:13;12.05;;;2.50;;
35648;SDS011;21768;48.562;13.414;2023-07-29T13:15:39;5.63;;;2.40;;
35648;SDS011;21768;48.562;13.414;2023-07-29T13:18:04;6.30;;;2.50;;
35648;SDS011;21768;48.562;13.414;2023-07-29T13:20:29;15.02;;;2.63;;
35648;SDS011;21768;48.562;13.414;2023-07-29T13:22:55;3.22;;;2.30;;
35648;SDS011;21768;48.562;13.414;2023-07-29T13:25:20;9.25;;;2.80;;
35648;SDS011;21768;48.562;13.414;2023-07-29T13:27:46;4.47;;;2.67;;
35648;SDS011;21768;48.562;13.414;2023-07-29T13:30:11;4.57;;;2.25;;
35648;SDS011;21768;48.562;13.414;2023-07-29T13:32:36;4.03;;;2.40;;
35648;SDS011;21768;48.562;13.414;2023-07-29T13:35:02;4.55;;;2.50;;
35648;SDS011;21768;48.562;13.414;2023-07-29T13:37:27;4.80;;;2.55;;
35648;SDS011;21768;48.562;13.414;2023-07-29T13:39:53;3.75;;;1.73;;
35648;SDS011;21768;48.562;13.414;2023-07-29T13:42:18;4.20;;;1.70;;
35648;SDS011;21768;48.562;13.414;2023-07-29T13:44:43;3.15;;;2.17;;
35648;SDS011;21768;48.562;13.414;2023-07-29T13:47:09;3.50;;;1.92;;
35648;SDS011;21768;48.562;13.414;2023-07-29T13:49:34;5.07;;;2.35;;
35648;SDS011;21768;48.562;13.414;2023-07-29T13:51:59;3.40;;;1.80;;
35648;SDS011;21768;48.562;13.414;2023-07-29T13:54:25;3.38;;;1.70;;
35648;SDS011;21768;48.562;13.414;2023-07-29T13:56:50;3.70;;;2.25;;
35648;SDS011;21768;48.562;13.414;2023-07-29T13:59:15;2.88;;;1.92;;
35648;SDS011;21768;48.562;13.414;2023-07-29T14:01:41;3.53;;;1.73;;
35648;SDS011;21768;48.562;13.414;2023-07-29T14:04:06;3.65;;;3.03;;
35648;SDS011;21768;48.562;13.414;2023-07-29T14:06:32;4.10;;;2.70;;
35648;SDS011;21768;48.562;13.414;2023-07-29T14:08:57;4.57;;;2.03;;
35648;SDS011;21768;48.562;13.414;2023-07-29T14:11:22;2.40;;;1.73;;
35648;SDS011;21768;48.562;13.414;2023-07-29T14:13:48;2.17;;;1.67;;
35648;SDS011;21768;48.562;13.414;2023-07-29T14:16:13;4.03;;;1.90;;
35648;SDS011;21768;48.562;13.414;2023-07-29T14:18:38;2.15;;;1.60;;
35648;SDS011;21768;48.562;13.414;2023-07-29T14:21:04;3.97;;;1.80;;
35648;SDS011;21768;48.562;13.414;2023-07-29T14:23:29;2.10;;;1.85;;
35648;SDS011;21768;48.562;13.414;2023-07-29T14:25:55;2.70;;;1.67;;
35648;SDS011;21768;48.562;13.414;2023-07-29T14:28:20;4.40;;;1.88;;
35648;SDS011;21768;48.562;13.414;2023-07-29T14:30:46;4.43;;;2.10;;
35648;SDS011;21768;48.562;13.414;2023-07-29T14:33:11;3.55;;;1.98;;
35648;SDS011;21768;48.562;13.414;2023-07-29T14:35:37;3.72;;;1.60;;
35648;SDS011;21768;48.562;13.414;2023-07-29T14:38:02;4.60;;;1.80;;